Cengizhan-1 — TC6133 — position and weather

sailwx.info

Track history (hours):
 
Tides and Currents Weather Stations Pressure Air Temp Water Temp Dewpoint Dewpoint Depression Visibility Wind Speed Wind Dir Waves Ship Positions

Cengizhan-1

Last reported at 2017-Dec-02 08:45 UTC. Time now 2017-Dec-13 17:03 UTC.
Position N 36°53' E 030°42'.
Warning: this ship's position is 11 days out of date.

Length 18 m.

Type: Passenger vessel. MMSI: 271040506.

Date/timePositionNaut miles runAvg speedWind from/ knotsBaromVisibWave heightAir tempDewpointWater temp
2017-Dec-02 08:45N 36°53' E 030°42'0 0.0
2017-Dec-02 08:30N 36°53' E 030°42'0 0.0
2017-Dec-02 08:00N 36°53' E 030°42'0 0.0
2017-Dec-02 07:30N 36°53' E 030°42'0 0.0
2017-Dec-02 07:00N 36°53' E 030°42'0 0.0
2017-Dec-02 06:30N 36°53' E 030°42'0 0.0
2017-Dec-02 05:54N 36°53' E 030°42'0 0.0
2017-Dec-01 14:51N 36°53' E 030°42'0 0.0
2017-Dec-01 14:30N 36°53' E 030°42'1 2.2
2017-Dec-01 14:00N 36°52' E 030°42'1 2.1
2017-Dec-01 13:30N 36°53' E 030°42'0 0.3
2017-Dec-01 13:00N 36°53' E 030°42'3 5.8
2017-Dec-01 12:30N 36°51' E 030°45'1 2.7
2017-Dec-01 12:00N 36°51' E 030°46'3 6.5
2017-Dec-01 11:30N 36°52' E 030°43'1 2.0
2017-Dec-01 10:58N 36°53' E 030°42'0 0.0
2017-Dec-01 10:25N 36°53' E 030°42'0 0.0
2017-Dec-01 09:58N 36°53' E 030°42'0 0.0
2017-Dec-01 09:29N 36°53' E 030°42'0 0.0
2017-Dec-01 08:58N 36°53' E 030°42'0 0.0
2017-Dec-01 08:28N 36°53' E 030°42'0 0.0
2017-Dec-01 07:58N 36°53' E 030°42'0 0.0
2017-Dec-01 07:28N 36°53' E 030°42'0 0.0
2017-Dec-01 06:59N 36°53' E 030°42'0 0.0
2017-Dec-01 06:28N 36°53' E 030°42'0 0.0
2017-Dec-01 05:59N 36°53' E 030°42'0 0.0
2017-Dec-01 05:29N 36°53' E 030°42'0 0.0
2017-Dec-01 04:56N 36°53' E 030°42'0 0.0
2017-Dec-01 04:29N 36°53' E 030°42'0 0.0
2017-Dec-01 03:59N 36°53' E 030°42'0 0.0
2017-Dec-01 03:29N 36°53' E 030°42'0 0.0
2017-Dec-01 02:59N 36°53' E 030°42'0 0.0
2017-Dec-01 02:29N 36°53' E 030°42'0 0.0
2017-Dec-01 01:59N 36°53' E 030°42'0 0.0
2017-Dec-01 01:29N 36°53' E 030°42'0 0.0
2017-Dec-01 00:59N 36°53' E 030°42'0 0.0
2017-Dec-01 00:26N 36°53' E 030°42'0 0.0
2017-Nov-30 23:59N 36°53' E 030°42'0 0.0
2017-Nov-30 23:29N 36°53' E 030°42'0 0.0
2017-Nov-30 22:59N 36°53' E 030°42'0 0.0
2017-Nov-30 22:29N 36°53' E 030°42'0 0.0
2017-Nov-30 21:59N 36°53' E 030°42'0 0.0
2017-Nov-30 21:29N 36°53' E 030°42'0 0.0
2017-Nov-30 20:59N 36°53' E 030°42'0 0.0
2017-Nov-30 20:29N 36°53' E 030°42'0 0.0
2017-Nov-30 19:59N 36°53' E 030°42'0 0.0
2017-Nov-30 19:29N 36°53' E 030°42'0 0.0
2017-Nov-30 18:59N 36°53' E 030°42'0 0.0
2017-Nov-30 18:29N 36°53' E 030°42'0 0.0
2017-Nov-30 17:59N 36°53' E 030°42'0 0.0
2017-Nov-30 17:29N 36°53' E 030°42'0 0.0
2017-Nov-30 16:59N 36°53' E 030°42'0 0.0
2017-Nov-30 16:29N 36°53' E 030°42'0 0.0
2017-Nov-30 15:59N 36°53' E 030°42'0 0.0
2017-Nov-30 15:29N 36°53' E 030°42'0 0.0
2017-Nov-30 14:59N 36°53' E 030°42'0 0.0
2017-Nov-30 14:29N 36°53' E 030°42'0 0.0
2017-Nov-30 13:59N 36°53' E 030°42'0 0.0
2017-Nov-30 13:29N 36°53' E 030°42'0 0.0
2017-Nov-30 12:59N 36°53' E 030°42'0 0.0
2017-Nov-30 12:29N 36°53' E 030°42'0 0.0
2017-Nov-30 11:59N 36°53' E 030°42'0 0.0
2017-Nov-30 11:29N 36°53' E 030°42'0 0.0
2017-Nov-30 10:59N 36°53' E 030°42'0 0.0
2017-Nov-30 10:29N 36°53' E 030°42'0 0.0
2017-Nov-30 09:59N 36°53' E 030°42'0 0.0
2017-Nov-30 09:29N 36°53' E 030°42'0 0.0
2017-Nov-30 08:59N 36°53' E 030°42'0 0.3
2017-Nov-30 08:30N 36°53' E 030°42'3 6.6
2017-Nov-30 08:00N 36°51' E 030°45'1 2.4
2017-Nov-30 07:29N 36°51' E 030°47'3 6.4
2017-Nov-30 07:00N 36°52' E 030°43'1 2.8
2017-Nov-30 06:29N 36°53' E 030°42'0 0.0
2017-Nov-30 05:59N 36°53' E 030°42'0 0.0
2017-Nov-30 05:29N 36°53' E 030°42'0 0.0
2017-Nov-30 04:59N 36°53' E 030°42'0 0.0
2017-Nov-30 04:29N 36°53' E 030°42'0 0.0
2017-Nov-30 03:56N 36°53' E 030°42'0 0.0
2017-Nov-30 03:29N 36°53' E 030°42'0 0.0
2017-Nov-30 02:59N 36°53' E 030°42'0 0.0
2017-Nov-30 02:29N 36°53' E 030°42'0 0.0
2017-Nov-30 01:56N 36°53' E 030°42'0 0.0
2017-Nov-30 01:29N 36°53' E 030°42'0 0.0
2017-Nov-30 00:56N 36°53' E 030°42'0 0.0
2017-Nov-30 00:26N 36°53' E 030°42'0 0.0
2017-Nov-29 23:59N 36°53' E 030°42'0 0.0
2017-Nov-29 23:26N 36°53' E 030°42'0 0.0
2017-Nov-29 22:59N 36°53' E 030°42'0 0.0
2017-Nov-29 22:29N 36°53' E 030°42'0 0.0
2017-Nov-29 21:59N 36°53' E 030°42'0 0.0
2017-Nov-29 21:29N 36°53' E 030°42'0 0.0
2017-Nov-28 16:27N 36°53' E 030°42'0 0.0
2017-Nov-28 16:00N 36°53' E 030°42'0 0.0
2017-Nov-28 15:00N 36°53' E 030°42'0 0.0
2017-Nov-28 14:30N 36°53' E 030°42'0 0.0
2017-Nov-28 13:57N 36°53' E 030°42'0 0.0
2017-Nov-28 13:30N 36°53' E 030°42'0 0.0
2017-Nov-28 12:57N 36°53' E 030°42'0 0.0
2017-Nov-28 12:27N 36°53' E 030°42'0 0.0
2017-Nov-28 12:00N 36°53' E 030°42'0 0.0
2017-Nov-28 11:30N 36°53' E 030°42'0 0.0
2017-Nov-28 11:00N 36°53' E 030°42'0 0.0
2017-Nov-28 10:30N 36°53' E 030°42'0 0.0
2017-Nov-28 10:00N 36°53' E 030°42'0 0.0
2017-Nov-28 09:30N 36°53' E 030°42'0 0.0
2017-Nov-28 09:00N 36°53' E 030°42'0 0.0
2017-Nov-28 08:30N 36°53' E 030°42'0 0.0
2017-Nov-28 07:57N 36°53' E 030°42'0 0.0
2017-Nov-28 07:30N 36°53' E 030°42'0 0.0
2017-Nov-28 07:00N 36°53' E 030°42'0 0.0
2017-Nov-28 06:30N 36°53' E 030°42'0 0.0
2017-Nov-28 06:00N 36°53' E 030°42'0 0.0
2017-Nov-28 05:30N 36°53' E 030°42'0 0.0
2017-Nov-28 04:30N 36°53' E 030°42'0 0.0
2017-Nov-28 04:00N 36°53' E 030°42'0 0.0
2017-Nov-28 03:30N 36°53' E 030°42'0 0.0
2017-Nov-28 02:54N 36°53' E 030°42'0 0.0
2017-Nov-28 02:30N 36°53' E 030°42'0 0.0
2017-Nov-28 01:54N 36°53' E 030°42'0 0.0
2017-Nov-28 01:24N 36°53' E 030°42'0 0.0
2017-Nov-28 01:00N 36°53' E 030°42'0 0.0
2017-Nov-28 00:27N 36°53' E 030°42'0 0.0
2017-Nov-28 00:00N 36°53' E 030°42'0 0.0
2017-Nov-27 23:27N 36°53' E 030°42'0 0.0
2017-Nov-27 23:00N 36°53' E 030°42'0 0.0
2017-Nov-27 22:30N 36°53' E 030°42'0 0.0
2017-Nov-27 22:00N 36°53' E 030°42'0 0.0
2017-Nov-27 21:30N 36°53' E 030°42'0 0.0
2017-Nov-27 20:54N 36°53' E 030°42'0 0.0
2017-Nov-27 20:27N 36°53' E 030°42'0 0.0
2017-Nov-27 19:54N 36°53' E 030°42'0 0.0
2017-Nov-27 19:21N 36°53' E 030°42'0 0.0
2017-Nov-27 18:57N 36°53' E 030°42'0 0.0
2017-Nov-27 18:15N 36°53' E 030°42'0 0.0
2017-Nov-25 15:00N 36°53' E 030°42'0 0.0
2017-Nov-25 14:30N 36°53' E 030°42'0 0.0
2017-Nov-25 14:00N 36°53' E 030°42'1 2.4
2017-Nov-25 13:30N 36°52' E 030°43'1 2.2
2017-Nov-25 12:58N 36°53' E 030°42'0 0.0
2017-Nov-25 12:28N 36°53' E 030°42'0 0.5
2017-Nov-25 12:00N 36°53' E 030°42'1 2.2
2017-Nov-25 11:30N 36°53' E 030°41'1 2.4
2017-Nov-25 10:59N 36°53' E 030°42'0 0.0
2017-Nov-25 10:29N 36°53' E 030°42'0 0.0
2017-Nov-25 09:59N 36°53' E 030°42'0 0.0
2017-Nov-25 09:29N 36°53' E 030°42'0 0.0
2017-Nov-25 08:59N 36°53' E 030°42'0 0.0
2017-Nov-25 08:29N 36°53' E 030°42'0 0.0
2017-Nov-25 07:59N 36°53' E 030°42'0 0.0
2017-Nov-25 07:29N 36°53' E 030°42'0 0.0
2017-Nov-25 06:59N 36°53' E 030°42'0 0.0
2017-Nov-25 06:29N 36°53' E 030°42'0 0.0
2017-Nov-25 05:59N 36°53' E 030°42'0 0.0
2017-Nov-25 05:29N 36°53' E 030°42'0 0.0
2017-Nov-25 04:56N 36°53' E 030°42'0 0.0
2017-Nov-25 04:29N 36°53' E 030°42'0 0.0
2017-Nov-25 03:59N 36°53' E 030°42'0 0.0
2017-Nov-25 03:29N 36°53' E 030°42'0 0.0
2017-Nov-25 02:59N 36°53' E 030°42'0 0.0
2017-Nov-25 02:29N 36°53' E 030°42'0 0.0
2017-Nov-25 01:59N 36°53' E 030°42'0 0.0
2017-Nov-25 01:29N 36°53' E 030°42'0 0.0
2017-Nov-25 00:59N 36°53' E 030°42'0 0.0
2017-Nov-25 00:29N 36°53' E 030°42'0 0.0
2017-Nov-24 23:59N 36°53' E 030°42'0 0.0
2017-Nov-24 23:29N 36°53' E 030°42'0 0.0
2017-Nov-24 22:59N 36°53' E 030°42'0 0.0
2017-Nov-24 22:26N 36°53' E 030°42'0 0.0
2017-Nov-24 21:59N 36°53' E 030°42'0 0.0
2017-Nov-24 21:29N 36°53' E 030°42'0 0.0
2017-Nov-24 20:59N 36°53' E 030°42'0 0.0
2017-Nov-24 20:29N 36°53' E 030°42'0 0.0
2017-Nov-24 19:56N 36°53' E 030°42'0 0.0
2017-Nov-24 19:29N 36°53' E 030°42'0 0.0
2017-Nov-24 18:59N 36°53' E 030°42'0 0.0
2017-Nov-24 18:29N 36°53' E 030°42'0 0.0
2017-Nov-24 17:59N 36°53' E 030°42'0 0.0
2017-Nov-24 17:29N 36°53' E 030°42'0 0.0
2017-Nov-24 16:56N 36°53' E 030°42'0 0.0
2017-Nov-24 16:29N 36°53' E 030°42'0 0.0
2017-Nov-24 15:59N 36°53' E 030°42'0 0.0
2017-Nov-24 15:29N 36°53' E 030°42'0 0.0
2017-Nov-24 14:59N 36°53' E 030°42'0 0.0
2017-Nov-24 14:29N 36°53' E 030°42'0 0.0
2017-Nov-24 13:59N 36°53' E 030°42'0 0.0
2017-Nov-24 13:29N 36°53' E 030°42'0 0.0
2017-Nov-24 12:59N 36°53' E 030°42'2 3.7
2017-Nov-24 12:30N 36°52' E 030°43'3 3.9
2017-Nov-24 11:50N 36°51' E 030°47'2 5.9
2017-Nov-24 11:30N 36°51' E 030°44'2 4.9
2017-Nov-24 11:00N 36°53' E 030°42'1 1.5
2017-Nov-24 10:30N 36°52' E 030°42'1 2.0
2017-Nov-24 10:01N 36°53' E 030°41'1 1.1
2017-Nov-24 09:30N 36°53' E 030°42'0 0.0
2017-Nov-24 09:00N 36°53' E 030°42'0 0.0
2017-Nov-24 08:30N 36°53' E 030°42'0 0.0
2017-Nov-24 08:00N 36°53' E 030°42'0 0.0
2017-Nov-24 07:30N 36°53' E 030°42'0 0.0
2017-Nov-24 07:00N 36°53' E 030°42'0 0.0
2017-Nov-24 06:30N 36°53' E 030°42'0 0.0
2017-Nov-24 06:00N 36°53' E 030°42'0 0.0
2017-Nov-24 05:30N 36°53' E 030°42'0 0.0
2017-Nov-24 05:00N 36°53' E 030°42'0 0.0
2017-Nov-24 04:27N 36°53' E 030°42'0 0.0
2017-Nov-24 04:00N 36°53' E 030°42'0 0.0
2017-Nov-24 03:30N 36°53' E 030°42'0 0.0
2017-Nov-24 03:00N 36°53' E 030°42'0 0.0
2017-Nov-24 02:30N 36°53' E 030°42'0 0.0
2017-Nov-24 02:00N 36°53' E 030°42'0 0.0
2017-Nov-24 01:30N 36°53' E 030°42'0 0.0
2017-Nov-24 00:57N 36°53' E 030°42'0 0.0
2017-Nov-24 00:30N 36°53' E 030°42'0 0.0
2017-Nov-24 00:00N 36°53' E 030°42'0 0.0
2017-Nov-23 23:30N 36°53' E 030°42'0 0.0
2017-Nov-23 23:00N 36°53' E 030°42'0 0.0
2017-Nov-23 22:30N 36°53' E 030°42'0 0.0
2017-Nov-23 22:00N 36°53' E 030°42'0 0.0
2017-Nov-23 21:30N 36°53' E 030°42'0 0.0
2017-Nov-23 21:00N 36°53' E 030°42'0 0.0
2017-Nov-23 20:30N 36°53' E 030°42'0 0.0
2017-Nov-23 20:00N 36°53' E 030°42'0 0.0
2017-Nov-23 19:30N 36°53' E 030°42'  
Track history (hours):
 
Tides and Currents Weather Stations Pressure Air Temp Water Temp Dewpoint Dewpoint Depression Visibility Wind Speed Wind Dir Waves Ship Positions

Cengizhan-1

Last reported at 2017-Dec-02 08:45 UTC. Time now 2017-Dec-13 17:03 UTC.
Position N 36°53' E 030°42'.
Warning: this ship's position is 11 days out of date.

Length 18 m.

Type: Passenger vessel. MMSI: 271040506.

Date/timePositionNaut miles runAvg speedWind from/ knotsBaromVisibWave heightAir tempDewpointWater temp
2017-Dec-02 08:45N 36°53' E 030°42'0 0.0
2017-Dec-02 08:30N 36°53' E 030°42'0 0.0
2017-Dec-02 08:00N 36°53' E 030°42'0 0.0
2017-Dec-02 07:30N 36°53' E 030°42'0 0.0
2017-Dec-02 07:00N 36°53' E 030°42'0 0.0
2017-Dec-02 06:30N 36°53' E 030°42'0 0.0
2017-Dec-02 05:54N 36°53' E 030°42'0 0.0
2017-Dec-01 14:51N 36°53' E 030°42'0 0.0
2017-Dec-01 14:30N 36°53' E 030°42'1 2.2
2017-Dec-01 14:00N 36°52' E 030°42'1 2.1
2017-Dec-01 13:30N 36°53' E 030°42'0 0.3
2017-Dec-01 13:00N 36°53' E 030°42'3 5.8
2017-Dec-01 12:30N 36°51' E 030°45'1 2.7
2017-Dec-01 12:00N 36°51' E 030°46'3 6.5
2017-Dec-01 11:30N 36°52' E 030°43'1 2.0
2017-Dec-01 10:58N 36°53' E 030°42'0 0.0
2017-Dec-01 10:25N 36°53' E 030°42'0 0.0
2017-Dec-01 09:58N 36°53' E 030°42'0 0.0
2017-Dec-01 09:29N 36°53' E 030°42'0 0.0
2017-Dec-01 08:58N 36°53' E 030°42'0 0.0
2017-Dec-01 08:28N 36°53' E 030°42'0 0.0
2017-Dec-01 07:58N 36°53' E 030°42'0 0.0
2017-Dec-01 07:28N 36°53' E 030°42'0 0.0
2017-Dec-01 06:59N 36°53' E 030°42'0 0.0
2017-Dec-01 06:28N 36°53' E 030°42'0 0.0
2017-Dec-01 05:59N 36°53' E 030°42'0 0.0
2017-Dec-01 05:29N 36°53' E 030°42'0 0.0
2017-Dec-01 04:56N 36°53' E 030°42'0 0.0
2017-Dec-01 04:29N 36°53' E 030°42'0 0.0
2017-Dec-01 03:59N 36°53' E 030°42'0 0.0
2017-Dec-01 03:29N 36°53' E 030°42'0 0.0
2017-Dec-01 02:59N 36°53' E 030°42'0 0.0
2017-Dec-01 02:29N 36°53' E 030°42'0 0.0
2017-Dec-01 01:59N 36°53' E 030°42'0 0.0
2017-Dec-01 01:29N 36°53' E 030°42'0 0.0
2017-Dec-01 00:59N 36°53' E 030°42'0 0.0
2017-Dec-01 00:26N 36°53' E 030°42'0 0.0
2017-Nov-30 23:59N 36°53' E 030°42'0 0.0
2017-Nov-30 23:29N 36°53' E 030°42'0 0.0
2017-Nov-30 22:59N 36°53' E 030°42'0 0.0
2017-Nov-30 22:29N 36°53' E 030°42'0 0.0
2017-Nov-30 21:59N 36°53' E 030°42'0 0.0
2017-Nov-30 21:29N 36°53' E 030°42'0 0.0
2017-Nov-30 20:59N 36°53' E 030°42'0 0.0
2017-Nov-30 20:29N 36°53' E 030°42'0 0.0
2017-Nov-30 19:59N 36°53' E 030°42'0 0.0
2017-Nov-30 19:29N 36°53' E 030°42'0 0.0
2017-Nov-30 18:59N 36°53' E 030°42'0 0.0
2017-Nov-30 18:29N 36°53' E 030°42'0 0.0
2017-Nov-30 17:59N 36°53' E 030°42'0 0.0
2017-Nov-30 17:29N 36°53' E 030°42'0 0.0
2017-Nov-30 16:59N 36°53' E 030°42'0 0.0
2017-Nov-30 16:29N 36°53' E 030°42'0 0.0
2017-Nov-30 15:59N 36°53' E 030°42'0 0.0
2017-Nov-30 15:29N 36°53' E 030°42'0 0.0
2017-Nov-30 14:59N 36°53' E 030°42'0 0.0
2017-Nov-30 14:29N 36°53' E 030°42'0 0.0
2017-Nov-30 13:59N 36°53' E 030°42'0 0.0
2017-Nov-30 13:29N 36°53' E 030°42'0 0.0
2017-Nov-30 12:59N 36°53' E 030°42'0 0.0
2017-Nov-30 12:29N 36°53' E 030°42'0 0.0
2017-Nov-30 11:59N 36°53' E 030°42'0 0.0
2017-Nov-30 11:29N 36°53' E 030°42'0 0.0
2017-Nov-30 10:59N 36°53' E 030°42'0 0.0
2017-Nov-30 10:29N 36°53' E 030°42'0 0.0
2017-Nov-30 09:59N 36°53' E 030°42'0 0.0
2017-Nov-30 09:29N 36°53' E 030°42'0 0.0
2017-Nov-30 08:59N 36°53' E 030°42'0 0.3
2017-Nov-30 08:30N 36°53' E 030°42'3 6.6
2017-Nov-30 08:00N 36°51' E 030°45'1 2.4
2017-Nov-30 07:29N 36°51' E 030°47'3 6.4
2017-Nov-30 07:00N 36°52' E 030°43'1 2.8
2017-Nov-30 06:29N 36°53' E 030°42'0 0.0
2017-Nov-30 05:59N 36°53' E 030°42'0 0.0
2017-Nov-30 05:29N 36°53' E 030°42'0 0.0
2017-Nov-30 04:59N 36°53' E 030°42'0 0.0
2017-Nov-30 04:29N 36°53' E 030°42'0 0.0
2017-Nov-30 03:56N 36°53' E 030°42'0 0.0
2017-Nov-30 03:29N 36°53' E 030°42'0 0.0
2017-Nov-30 02:59N 36°53' E 030°42'0 0.0
2017-Nov-30 02:29N 36°53' E 030°42'0 0.0
2017-Nov-30 01:56N 36°53' E 030°42'0 0.0
2017-Nov-30 01:29N 36°53' E 030°42'0 0.0
2017-Nov-30 00:56N 36°53' E 030°42'0 0.0
2017-Nov-30 00:26N 36°53' E 030°42'0 0.0
2017-Nov-29 23:59N 36°53' E 030°42'0 0.0
2017-Nov-29 23:26N 36°53' E 030°42'0 0.0
2017-Nov-29 22:59N 36°53' E 030°42'0 0.0
2017-Nov-29 22:29N 36°53' E 030°42'0 0.0
2017-Nov-29 21:59N 36°53' E 030°42'0 0.0
2017-Nov-29 21:29N 36°53' E 030°42'0 0.0
2017-Nov-28 16:27N 36°53' E 030°42'0 0.0
2017-Nov-28 16:00N 36°53' E 030°42'0 0.0
2017-Nov-28 15:00N 36°53' E 030°42'0 0.0
2017-Nov-28 14:30N 36°53' E 030°42'0 0.0
2017-Nov-28 13:57N 36°53' E 030°42'0 0.0
2017-Nov-28 13:30N 36°53' E 030°42'0 0.0
2017-Nov-28 12:57N 36°53' E 030°42'0 0.0
2017-Nov-28 12:27N 36°53' E 030°42'0 0.0
2017-Nov-28 12:00N 36°53' E 030°42'0 0.0
2017-Nov-28 11:30N 36°53' E 030°42'0 0.0
2017-Nov-28 11:00N 36°53' E 030°42'0 0.0
2017-Nov-28 10:30N 36°53' E 030°42'0 0.0
2017-Nov-28 10:00N 36°53' E 030°42'0 0.0
2017-Nov-28 09:30N 36°53' E 030°42'0 0.0
2017-Nov-28 09:00N 36°53' E 030°42'0 0.0
2017-Nov-28 08:30N 36°53' E 030°42'0 0.0
2017-Nov-28 07:57N 36°53' E 030°42'0 0.0
2017-Nov-28 07:30N 36°53' E 030°42'0 0.0
2017-Nov-28 07:00N 36°53' E 030°42'0 0.0
2017-Nov-28 06:30N 36°53' E 030°42'0 0.0
2017-Nov-28 06:00N 36°53' E 030°42'0 0.0
2017-Nov-28 05:30N 36°53' E 030°42'0 0.0
2017-Nov-28 04:30N 36°53' E 030°42'0 0.0
2017-Nov-28 04:00N 36°53' E 030°42'0 0.0
2017-Nov-28 03:30N 36°53' E 030°42'0 0.0
2017-Nov-28 02:54N 36°53' E 030°42'0 0.0
2017-Nov-28 02:30N 36°53' E 030°42'0 0.0
2017-Nov-28 01:54N 36°53' E 030°42'0 0.0
2017-Nov-28 01:24N 36°53' E 030°42'0 0.0
2017-Nov-28 01:00N 36°53' E 030°42'0 0.0
2017-Nov-28 00:27N 36°53' E 030°42'0 0.0
2017-Nov-28 00:00N 36°53' E 030°42'0 0.0
2017-Nov-27 23:27N 36°53' E 030°42'0 0.0
2017-Nov-27 23:00N 36°53' E 030°42'0 0.0
2017-Nov-27 22:30N 36°53' E 030°42'0 0.0
2017-Nov-27 22:00N 36°53' E 030°42'0 0.0
2017-Nov-27 21:30N 36°53' E 030°42'0 0.0
2017-Nov-27 20:54N 36°53' E 030°42'0 0.0
2017-Nov-27 20:27N 36°53' E 030°42'0 0.0
2017-Nov-27 19:54N 36°53' E 030°42'0 0.0
2017-Nov-27 19:21N 36°53' E 030°42'0 0.0
2017-Nov-27 18:57N 36°53' E 030°42'0 0.0
2017-Nov-27 18:15N 36°53' E 030°42'0 0.0
2017-Nov-25 15:00N 36°53' E 030°42'0 0.0
2017-Nov-25 14:30N 36°53' E 030°42'0 0.0
2017-Nov-25 14:00N 36°53' E 030°42'1 2.4
2017-Nov-25 13:30N 36°52' E 030°43'1 2.2
2017-Nov-25 12:58N 36°53' E 030°42'0 0.0
2017-Nov-25 12:28N 36°53' E 030°42'0 0.5
2017-Nov-25 12:00N 36°53' E 030°42'1 2.2
2017-Nov-25 11:30N 36°53' E 030°41'1 2.4
2017-Nov-25 10:59N 36°53' E 030°42'0 0.0
2017-Nov-25 10:29N 36°53' E 030°42'0 0.0
2017-Nov-25 09:59N 36°53' E 030°42'0 0.0
2017-Nov-25 09:29N 36°53' E 030°42'0 0.0
2017-Nov-25 08:59N 36°53' E 030°42'0 0.0
2017-Nov-25 08:29N 36°53' E 030°42'0 0.0
2017-Nov-25 07:59N 36°53' E 030°42'0 0.0
2017-Nov-25 07:29N 36°53' E 030°42'0 0.0
2017-Nov-25 06:59N 36°53' E 030°42'0 0.0
2017-Nov-25 06:29N 36°53' E 030°42'0 0.0
2017-Nov-25 05:59N 36°53' E 030°42'0 0.0
2017-Nov-25 05:29N 36°53' E 030°42'0 0.0
2017-Nov-25 04:56N 36°53' E 030°42'0 0.0
2017-Nov-25 04:29N 36°53' E 030°42'0 0.0
2017-Nov-25 03:59N 36°53' E 030°42'0 0.0
2017-Nov-25 03:29N 36°53' E 030°42'0 0.0
2017-Nov-25 02:59N 36°53' E 030°42'0 0.0
2017-Nov-25 02:29N 36°53' E 030°42'0 0.0
2017-Nov-25 01:59N 36°53' E 030°42'0 0.0
2017-Nov-25 01:29N 36°53' E 030°42'0 0.0
2017-Nov-25 00:59N 36°53' E 030°42'0 0.0
2017-Nov-25 00:29N 36°53' E 030°42'0 0.0
2017-Nov-24 23:59N 36°53' E 030°42'0 0.0
2017-Nov-24 23:29N 36°53' E 030°42'0 0.0
2017-Nov-24 22:59N 36°53' E 030°42'0 0.0
2017-Nov-24 22:26N 36°53' E 030°42'0 0.0
2017-Nov-24 21:59N 36°53' E 030°42'0 0.0
2017-Nov-24 21:29N 36°53' E 030°42'0 0.0
2017-Nov-24 20:59N 36°53' E 030°42'0 0.0
2017-Nov-24 20:29N 36°53' E 030°42'0 0.0
2017-Nov-24 19:56N 36°53' E 030°42'0 0.0
2017-Nov-24 19:29N 36°53' E 030°42'0 0.0
2017-Nov-24 18:59N 36°53' E 030°42'0 0.0
2017-Nov-24 18:29N 36°53' E 030°42'0 0.0
2017-Nov-24 17:59N 36°53' E 030°42'0 0.0
2017-Nov-24 17:29N 36°53' E 030°42'0 0.0
2017-Nov-24 16:56N 36°53' E 030°42'0 0.0
2017-Nov-24 16:29N 36°53' E 030°42'0 0.0
2017-Nov-24 15:59N 36°53' E 030°42'0 0.0
2017-Nov-24 15:29N 36°53' E 030°42'0 0.0
2017-Nov-24 14:59N 36°53' E 030°42'0 0.0
2017-Nov-24 14:29N 36°53' E 030°42'0 0.0
2017-Nov-24 13:59N 36°53' E 030°42'0 0.0
2017-Nov-24 13:29N 36°53' E 030°42'0 0.0
2017-Nov-24 12:59N 36°53' E 030°42'2 3.7
2017-Nov-24 12:30N 36°52' E 030°43'3 3.9
2017-Nov-24 11:50N 36°51' E 030°47'2 5.9
2017-Nov-24 11:30N 36°51' E 030°44'2 4.9
2017-Nov-24 11:00N 36°53' E 030°42'1 1.5
2017-Nov-24 10:30N 36°52' E 030°42'1 2.0
2017-Nov-24 10:01N 36°53' E 030°41'1 1.1
2017-Nov-24 09:30N 36°53' E 030°42'0 0.0
2017-Nov-24 09:00N 36°53' E 030°42'0 0.0
2017-Nov-24 08:30N 36°53' E 030°42'0 0.0
2017-Nov-24 08:00N 36°53' E 030°42'0 0.0
2017-Nov-24 07:30N 36°53' E 030°42'0 0.0
2017-Nov-24 07:00N 36°53' E 030°42'0 0.0
2017-Nov-24 06:30N 36°53' E 030°42'0 0.0
2017-Nov-24 06:00N 36°53' E 030°42'0 0.0
2017-Nov-24 05:30N 36°53' E 030°42'0 0.0
2017-Nov-24 05:00N 36°53' E 030°42'0 0.0
2017-Nov-24 04:27N 36°53' E 030°42'0 0.0
2017-Nov-24 04:00N 36°53' E 030°42'0 0.0
2017-Nov-24 03:30N 36°53' E 030°42'0 0.0
2017-Nov-24 03:00N 36°53' E 030°42'0 0.0
2017-Nov-24 02:30N 36°53' E 030°42'0 0.0
2017-Nov-24 02:00N 36°53' E 030°42'0 0.0
2017-Nov-24 01:30N 36°53' E 030°42'0 0.0
2017-Nov-24 00:57N 36°53' E 030°42'0 0.0
2017-Nov-24 00:30N 36°53' E 030°42'0 0.0
2017-Nov-24 00:00N 36°53' E 030°42'0 0.0
2017-Nov-23 23:30N 36°53' E 030°42'0 0.0
2017-Nov-23 23:00N 36°53' E 030°42'0 0.0
2017-Nov-23 22:30N 36°53' E 030°42'0 0.0
2017-Nov-23 22:00N 36°53' E 030°42'0 0.0
2017-Nov-23 21:30N 36°53' E 030°42'0 0.0
2017-Nov-23 21:00N 36°53' E 030°42'0 0.0
2017-Nov-23 20:30N 36°53' E 030°42'0 0.0
2017-Nov-23 20:00N 36°53' E 030°42'0 0.0
2017-Nov-23 19:30N 36°53' E 030°42'  

Dump ship's entire track history